Time;durP1;ratioP1;P1;durP2;ratioP2;P2;SDS_P1;SDS_P2;PMS_P1;PMS_P2;Temp;Humidity;BMP_temperature;BMP_pressure;BME280_temperature;BME280_humidity;BME280_pressure;Samples;Min_cycle;Max_cycle;Signal;HPM_P1;HPM_P2
2023/05/15 00:02:09;;;;;;;8.25;6.68;;;16.10;80.60;;;;;;4963296;29;20107;-85
2023/05/15 00:04:34;;;;;;;8.15;6.57;;;16.10;80.60;;;;;;4944963;29;20089;-83
2023/05/15 00:07:00;;;;;;;7.72;6.38;;;16.10;80.60;;;;;;4945625;29;20027;-84
2023/05/15 00:09:26;;;;;;;8.00;6.60;;;16.10;80.40;;;;;;4962765;28;20046;-84
2023/05/15 00:11:51;;;;;;;8.48;6.55;;;16.10;80.40;;;;;;4944587;29;20050;-85
2023/05/15 00:14:17;;;;;;;8.32;7.15;;;16.10;80.40;;;;;;4961744;28;20479;-84
2023/05/15 00:16:42;;;;;;;7.75;6.45;;;16.10;80.40;;;;;;4944353;29;20019;-82
2023/05/15 00:19:08;;;;;;;9.80;6.97;;;16.10;80.40;;;;;;4961938;29;20086;-85
2023/05/15 00:21:33;;;;;;;8.45;6.90;;;16.10;80.30;;;;;;4961668;28;20031;-85
2023/05/15 00:23:59;;;;;;;8.15;6.63;;;16.10;80.40;;;;;;4943782;29;20049;-84
2023/05/15 00:26:25;;;;;;;8.80;6.50;;;16.10;80.10;;;;;;4943686;29;20031;-84
2023/05/15 00:28:50;;;;;;;7.97;6.57;;;16.00;80.00;;;;;;4943366;29;20076;-85
2023/05/15 00:31:16;;;;;;;8.35;6.20;;;16.10;80.30;;;;;;4943675;29;20071;-85
2023/05/15 00:33:42;;;;;;;8.15;6.57;;;16.10;80.40;;;;;;4941544;29;20484;-84
2023/05/15 00:36:07;;;;;;;7.85;6.13;;;16.00;80.30;;;;;;4960704;29;20476;-84
2023/05/15 00:38:33;;;;;;;9.68;6.38;;;16.10;80.40;;;;;;4958833;29;20600;-84
2023/05/15 00:41:00;;;;;;;9.23;6.50;;;16.10;80.40;;;;;;4940204;29;20074;-84
2023/05/15 00:43:27;;;;;;;7.75;6.25;;;16.10;80.40;;;;;;4956759;29;20053;-82
2023/05/15 00:45:53;;;;;;;7.70;6.22;;;16.10;80.20;;;;;;4940251;29;20087;-83
2023/05/15 00:48:21;;;;;;;8.30;6.50;;;16.10;80.20;;;;;;4957256;28;20058;-83
2023/05/15 00:50:50;;;;;;;8.75;6.00;;;16.10;80.10;;;;;;4939658;29;20037;-84
2023/05/15 00:53:17;;;;;;;7.55;5.93;;;16.10;80.10;;;;;;4939989;29;20557;-83
2023/05/15 00:55:44;;;;;;;7.93;5.70;;;16.10;80.00;;;;;;4939684;29;20024;-84
2023/05/15 00:58:10;;;;;;;8.15;6.00;;;16.10;79.90;;;;;;4939577;29;20059;-83
2023/05/15 01:00:36;;;;;;;11.93;6.07;;;16.10;80.00;;;;;;4956647;29;20066;-83
2023/05/15 01:03:03;;;;;;;8.15;6.03;;;16.10;79.80;;;;;;4957169;28;20031;-83
2023/05/15 01:05:28;;;;;;;7.75;5.78;;;16.10;79.90;;;;;;4939634;29;20396;-83
2023/05/15 01:08:15;;;;;;;8.40;6.20;;;16.10;80.40;;;;;;4939378;29;20020;-84
2023/05/15 01:10:43;;;;;;;7.32;5.60;;;16.10;79.90;;;;;;4957053;29;20110;-84
2023/05/15 01:13:09;;;;;;;7.80;6.00;;;16.10;79.90;;;;;;4939501;29;20027;-84
2023/05/15 01:15:34;;;;;;;7.32;5.70;;;16.00;79.90;;;;;;4956227;29;20099;-84
2023/05/15 01:18:00;;;;;;;7.13;5.82;;;16.10;80.00;;;;;;4939124;29;20122;-84
2023/05/15 01:20:26;;;;;;;8.55;6.03;;;16.00;80.00;;;;;;4939290;29;20420;-84
2023/05/15 01:23:01;;;;;;;6.85;5.78;;;16.00;80.00;;;;;;4939192;29;20374;-83
2023/05/15 01:25:52;;;;;;;7.72;5.72;;;16.00;80.00;;;;;;4938909;29;20070;-84
2023/05/15 01:28:24;;;;;;;7.70;6.38;;;16.00;80.00;;;;;;4956191;29;20516;-84
2023/05/15 01:30:52;;;;;;;6.93;5.70;;;16.00;79.90;;;;;;4956289;29;20027;-83
2023/05/15 01:33:21;;;;;;;10.10;6.78;;;16.00;79.80;;;;;;4938723;28;20039;-83
2023/05/15 01:35:58;;;;;;;8.95;6.20;;;16.00;79.80;;;;;;4938730;29;20439;-84
2023/05/15 01:38:35;;;;;;;8.48;5.90;;;16.00;79.60;;;;;;4938708;29;20023;-83
2023/05/15 01:41:07;;;;;;;7.65;5.75;;;16.00;79.60;;;;;;4938901;29;20054;-83
2023/05/15 01:43:37;;;;;;;7.55;5.97;;;16.00;79.50;;;;;;4956166;28;20027;-84
2023/05/15 01:46:05;;;;;;;8.82;5.90;;;16.00;79.50;;;;;;4939186;29;20031;-84
2023/05/15 01:48:32;;;;;;;7.03;5.72;;;16.00;79.40;;;;;;4939072;29;20089;-84
2023/05/15 01:51:03;;;;;;;8.20;5.82;;;16.00;79.30;;;;;;4955513;28;20031;-84
2023/05/15 01:53:31;;;;;;;7.63;6.10;;;16.00;79.30;;;;;;4955926;29;20480;-83
2023/05/15 01:55:57;;;;;;;6.80;5.68;;;16.00;79.20;;;;;;4938703;29;20123;-84
2023/05/15 01:58:25;;;;;;;7.82;5.53;;;15.90;79.00;;;;;;4938874;29;20026;-84
2023/05/15 02:00:51;;;;;;;8.15;6.05;;;15.90;79.00;;;;;;4938436;29;20051;-83
2023/05/15 02:03:18;;;;;;;6.82;5.63;;;16.00;78.90;;;;;;4938134;29;20515;-83
2023/05/15 02:05:46;;;;;;;9.73;5.85;;;15.90;78.90;;;;;;4955512;28;20049;-84
2023/05/15 02:08:12;;;;;;;9.13;6.40;;;15.90;78.90;;;;;;4938165;29;20031;-83
2023/05/15 02:10:38;;;;;;;8.20;6.47;;;15.90;78.80;;;;;;4938126;29;20038;-84
2023/05/15 02:13:06;;;;;;;8.00;5.82;;;15.90;78.80;;;;;;4955236;29;20484;-84
2023/05/15 02:15:32;;;;;;;7.95;5.93;;;15.90;78.70;;;;;;4938738;29;20037;-84
2023/05/15 02:17:58;;;;;;;7.28;5.85;;;15.90;78.70;;;;;;4945125;29;20521;-84
2023/05/15 02:20:23;;;;;;;7.00;5.35;;;15.90;78.80;;;;;;4961644;29;20034;-85
2023/05/15 02:22:49;;;;;;;8.05;5.97;;;15.90;78.80;;;;;;4961529;28;20031;-84
2023/05/15 02:25:14;;;;;;;7.85;5.90;;;15.90;78.80;;;;;;4943854;29;20178;-85
2023/05/15 02:27:59;;;;;;;8.63;6.18;;;15.90;78.80;;;;;;4961000;29;20034;-84
2023/05/15 02:30:53;;;;;;;10.07;6.45;;;15.90;78.80;;;;;;4960571;29;20104;-84
2023/05/15 02:33:36;;;;;;;7.75;5.95;;;15.90;78.80;;;;;;4960648;29;20078;-84
2023/05/15 02:36:07;;;;;;;7.75;5.95;;;15.90;78.70;;;;;;4960841;28;20034;-85
2023/05/15 02:38:39;;;;;;;7.13;5.93;;;16.00;78.80;;;;;;4942394;29;20027;-83
2023/05/15 02:41:06;;;;;;;7.80;6.30;;;16.00;78.80;;;;;;4959989;29;20399;-84
2023/05/15 02:43:32;;;;;;;8.48;5.95;;;16.00;78.80;;;;;;4942316;29;20027;-84
2023/05/15 02:45:59;;;;;;;8.70;6.00;;;15.90;78.80;;;;;;4949995;28;20415;-84
2023/05/15 02:48:25;;;;;;;8.20;6.50;;;15.90;78.70;;;;;;4960567;28;20086;-84
2023/05/15 02:50:51;;;;;;;9.77;6.40;;;15.90;78.70;;;;;;4938276;29;20030;-83
2023/05/15 02:53:17;;;;;;;9.30;6.10;;;15.90;78.70;;;;;;4939600;29;20023;-84
2023/05/15 02:55:42;;;;;;;8.98;6.68;;;15.90;78.60;;;;;;4958121;28;20023;-84
2023/05/15 02:58:08;;;;;;;7.70;6.28;;;15.90;78.60;;;;;;4941246;29;20047;-85
2023/05/15 03:00:34;;;;;;;7.95;6.43;;;15.90;78.60;;;;;;4941239;29;20027;-84
2023/05/15 03:02:59;;;;;;;7.70;5.80;;;15.90;78.70;;;;;;4958702;29;20035;-84
2023/05/15 03:05:25;;;;;;;8.20;6.25;;;15.90;78.70;;;;;;4958655;29;20023;-85
2023/05/15 03:07:50;;;;;;;7.95;6.30;;;15.80;78.60;;;;;;4944052;29;20046;-85
2023/05/15 03:10:16;;;;;;;8.27;6.60;;;15.80;78.60;;;;;;4943790;29;20027;-85
2023/05/15 03:12:41;;;;;;;8.05;6.15;;;15.80;78.70;;;;;;4943785;29;20106;-85
2023/05/15 03:15:07;;;;;;;8.30;5.80;;;15.80;78.60;;;;;;4943216;29;20559;-84
2023/05/15 03:17:32;;;;;;;8.68;6.15;;;15.80;78.60;;;;;;4943150;29;20042;-85
2023/05/15 03:19:58;;;;;;;8.52;6.07;;;15.80;78.60;;;;;;4960198;29;20527;-84
2023/05/15 03:22:23;;;;;;;8.70;6.38;;;15.80;78.60;;;;;;4941122;29;20071;-81
2023/05/15 03:24:49;;;;;;;7.70;6.10;;;15.80;78.60;;;;;;4938731;29;20027;-81
2023/05/15 03:27:15;;;;;;;7.05;5.85;;;15.80;78.60;;;;;;4938353;29;20058;-79
2023/05/15 03:29:41;;;;;;;7.60;6.05;;;15.80;78.60;;;;;;4950113;28;20043;-80
2023/05/15 03:32:07;;;;;;;8.35;6.22;;;15.80;78.60;;;;;;4957882;28;20118;-80
2023/05/15 03:56:21;;;;;;;8.35;6.45;;;15.80;78.60;;;;;;4933851;23;20056;-80
2023/05/15 03:58:50;;;;;;;8.43;6.13;;;16.40;78.70;;;;;;4899070;29;20087;-80
2023/05/15 04:01:18;;;;;;;8.35;6.38;;;15.80;78.40;;;;;;4913444;29;20028;-79
2023/05/15 04:13:48;;;;;;;7.82;6.00;;;15.80;78.60;;;;;;4841998;29;20117;-82
2023/05/15 04:16:14;;;;;;;7.78;6.07;;;16.10;78.70;;;;;;4894774;29;20131;-81
2023/05/15 04:18:50;;;;;;;8.05;6.20;;;16.20;78.70;;;;;;4916926;29;20080;-84
2023/05/15 04:21:45;;;;;;;9.63;6.10;;;15.50;78.40;;;;;;4901354;29;20071;-81
2023/05/15 04:27:46;;;;;;;12.63;6.75;;;15.80;77.70;;;;;;4913344;29;20040;-82
2023/05/15 04:30:33;;;;;;;10.50;5.80;;;15.90;77.80;;;;;;4916709;29;20067;-81
2023/05/15 04:33:06;;;;;;;9.32;6.30;;;15.60;77.60;;;;;;4905266;29;20017;-81
2023/05/15 04:35:57;;;;;;;11.43;5.90;;;15.90;77.80;;;;;;4903579;29;20016;-81
2023/05/15 04:39:07;;;;;;;8.23;6.07;;;15.80;77.80;;;;;;4905702;29;20028;-82
2023/05/15 04:41:50;;;;;;;7.60;5.80;;;15.80;77.80;;;;;;4838279;29;20520;-81
2023/05/15 04:44:36;;;;;;;7.53;6.07;;;15.80;77.80;;;;;;4889714;29;20031;-81
2023/05/15 04:47:02;;;;;;;7.43;6.05;;;15.80;77.80;;;;;;4907960;29;20028;-81
2023/05/15 04:50:16;;;;;;;;;;;;;;;;;;;;;
2023/05/15 04:56:52;;;;;;;8.57;5.95;;;15.70;77.90;;;;;;4858530;29;20032;-81
2023/05/15 04:59:38;;;;;;;;;;;;;;;;;;;;;
2023/05/15 05:02:13;;;;;;;9.02;6.00;;;15.40;77.80;;;;;;4934918;29;20038;-81
2023/05/15 05:04:56;;;;;;;7.85;6.03;;;15.40;77.80;;;;;;4934668;29;20043;-80
2023/05/15 05:08:28;;;;;;;7.97;6.32;;;15.70;78.00;;;;;;4917922;29;20507;-82
2023/05/15 05:11:30;;;;;;;8.90;6.30;;;15.70;78.10;;;;;;4828662;29;20034;-81
2023/05/15 05:14:06;;;;;;;8.00;6.68;;;15.90;78.40;;;;;;4906004;29;20500;-79
2023/05/15 05:16:32;;;;;;;8.70;7.20;;;15.70;78.40;;;;;;4883682;29;20037;-81
2023/05/15 05:19:27;;;;;;;8.98;6.88;;;15.80;78.30;;;;;;4878654;29;20036;-80
2023/05/15 05:22:18;;;;;;;8.70;6.55;;;15.70;78.30;;;;;;4867278;29;20131;-80
2023/05/15 05:25:12;;;;;;;8.70;6.90;;;15.80;78.50;;;;;;4937326;23;20056;-79
2023/05/15 05:27:38;;;;;;;8.32;6.78;;;15.70;78.30;;;;;;4915290;29;20033;-81
2023/05/15 05:30:04;;;;;;;9.65;6.68;;;16.20;78.60;;;;;;4900899;29;20061;-86
2023/05/15 05:32:29;;;;;;;9.57;6.82;;;15.80;78.30;;;;;;4900905;29;20040;-84
2023/05/15 05:34:55;;;;;;;9.00;6.43;;;15.90;78.20;;;;;;4918981;29;20432;-83
2023/05/15 05:37:20;;;;;;;8.82;6.40;;;15.90;78.10;;;;;;4905696;29;20077;-86
2023/05/15 05:39:46;;;;;;;11.85;7.25;;;16.00;78.00;;;;;;4908657;29;20025;-85
2023/05/15 05:42:11;;;;;;;11.70;6.60;;;16.00;77.90;;;;;;4907627;29;20091;-87
2023/05/15 05:44:37;;;;;;;9.55;6.88;;;16.00;77.80;;;;;;4906615;29;20127;-88
2023/05/15 05:47:02;;;;;;;9.50;6.50;;;16.10;77.90;;;;;;4918940;29;20028;-87
2023/05/15 05:49:28;;;;;;;9.40;6.90;;;16.10;77.80;;;;;;4918313;29;20060;-86
2023/05/15 05:51:53;;;;;;;8.35;6.65;;;16.10;77.80;;;;;;4917132;29;20080;-87
2023/05/15 05:54:19;;;;;;;9.80;6.80;;;16.10;77.70;;;;;;4917599;29;20078;-86
2023/05/15 05:56:45;;;;;;;9.70;6.70;;;16.10;77.70;;;;;;4900723;29;20052;-87
2023/05/15 05:59:10;;;;;;;9.40;6.60;;;16.10;77.60;;;;;;4901416;29;20099;-87
2023/05/15 06:01:36;;;;;;;8.88;6.32;;;16.20;77.60;;;;;;4905522;29;20032;-87
2023/05/15 06:04:01;;;;;;;7.93;6.40;;;16.20;77.50;;;;;;4904490;29;20123;-87
2023/05/15 06:06:27;;;;;;;8.45;6.60;;;16.20;77.50;;;;;;4904683;29;20070;-87
2023/05/15 06:08:53;;;;;;;8.95;6.22;;;16.30;77.50;;;;;;4904974;29;20028;-86
2023/05/15 06:11:18;;;;;;;8.38;6.00;;;16.30;77.50;;;;;;4921830;29;20028;-87
2023/05/15 06:13:44;;;;;;;9.93;5.65;;;16.40;77.40;;;;;;4903962;29;20024;-87
2023/05/15 06:16:09;;;;;;;8.38;6.10;;;16.40;77.30;;;;;;4903796;29;20441;-85
2023/05/15 06:18:35;;;;;;;10.65;6.80;;;16.40;77.30;;;;;;4903985;29;20024;-87
2023/05/15 06:21:00;;;;;;;9.10;6.28;;;16.40;77.30;;;;;;4901362;29;20032;-87
2023/05/15 06:23:26;;;;;;;7.72;5.75;;;16.50;77.30;;;;;;4900102;29;20446;-85
2023/05/15 06:25:51;;;;;;;9.05;6.20;;;16.50;77.20;;;;;;4921607;29;20040;-88
2023/05/15 06:28:17;;;;;;;7.68;6.47;;;16.50;77.20;;;;;;4906650;29;20028;-87
2023/05/15 06:30:42;;;;;;;9.05;6.63;;;16.50;77.20;;;;;;4906344;29;20057;-88
2023/05/15 06:33:08;;;;;;;8.27;6.20;;;16.50;77.30;;;;;;4906797;29;20537;-87
2023/05/15 06:35:33;;;;;;;7.88;6.10;;;16.50;77.90;;;;;;4906109;29;20024;-88
2023/05/15 06:37:59;;;;;;;9.00;6.45;;;16.50;77.40;;;;;;4906091;29;20028;-87
2023/05/15 06:40:24;;;;;;;7.40;6.28;;;16.50;77.40;;;;;;4906245;29;20024;-86
2023/05/15 06:42:50;;;;;;;8.35;6.43;;;16.50;77.30;;;;;;4903346;29;20051;-86
2023/05/15 06:45:15;;;;;;;8.88;6.38;;;16.50;77.30;;;;;;4902483;29;20024;-86
2023/05/15 06:47:41;;;;;;;8.18;6.15;;;16.50;77.40;;;;;;4903999;29;20028;-87
2023/05/15 06:50:07;;;;;;;7.82;5.80;;;16.50;77.40;;;;;;4904466;29;20032;-87
2023/05/15 06:52:32;;;;;;;7.78;6.18;;;16.50;77.40;;;;;;4903291;29;20036;-87
2023/05/15 06:54:58;;;;;;;7.63;6.00;;;16.50;77.50;;;;;;4903113;29;20051;-86
2023/05/15 06:57:23;;;;;;;7.65;6.13;;;16.50;77.50;;;;;;4904091;29;20032;-86
2023/05/15 06:59:49;;;;;;;8.43;5.93;;;16.50;77.50;;;;;;4920400;29;20035;-86
2023/05/15 07:02:14;;;;;;;7.75;6.20;;;16.50;78.00;;;;;;4901700;29;20031;-86
2023/05/15 07:04:40;;;;;;;10.05;6.28;;;16.60;77.50;;;;;;4899130;29;20036;-86
2023/05/15 07:07:06;;;;;;;8.15;6.07;;;16.60;77.60;;;;;;4920564;29;20044;-87
2023/05/15 07:09:31;;;;;;;8.20;6.53;;;16.60;77.60;;;;;;4920525;29;20047;-86
2023/05/15 07:11:56;;;;;;;7.80;6.00;;;16.60;77.50;;;;;;4920325;29;20568;-86
2023/05/15 07:14:22;;;;;;;8.45;6.13;;;16.70;77.50;;;;;;4902110;29;20028;-87
2023/05/15 07:16:47;;;;;;;8.68;6.35;;;16.70;77.50;;;;;;4902165;29;20028;-86
2023/05/15 07:19:18;;;;;;;8.15;6.50;;;16.70;77.40;;;;;;4901786;29;20123;-86
2023/05/15 07:21:43;;;;;;;7.93;6.53;;;16.70;77.40;;;;;;4902073;29;20063;-86
2023/05/15 07:24:08;;;;;;;8.75;6.45;;;16.70;77.30;;;;;;4901313;29;20028;-86
2023/05/15 07:26:35;;;;;;;8.25;6.10;;;16.80;77.40;;;;;;4900160;29;20032;-86
2023/05/15 07:29:00;;;;;;;7.70;6.40;;;16.80;77.40;;;;;;4899316;29;20028;-86
2023/05/15 07:31:26;;;;;;;8.70;6.70;;;16.80;77.30;;;;;;4901213;29;20105;-86
2023/05/15 07:33:51;;;;;;;8.23;6.47;;;16.80;77.30;;;;;;4899327;29;20036;-86
2023/05/15 07:36:17;;;;;;;7.82;6.28;;;16.80;77.30;;;;;;4915931;29;20096;-86
2023/05/15 07:38:42;;;;;;;7.63;6.43;;;16.80;77.30;;;;;;4898428;29;20031;-86
2023/05/15 07:41:08;;;;;;;8.55;6.57;;;16.80;77.30;;;;;;4918175;29;20035;-86
2023/05/15 07:43:33;;;;;;;7.60;6.30;;;16.90;77.20;;;;;;4904268;29;20063;-86
2023/05/15 07:45:59;;;;;;;8.57;6.70;;;16.90;77.20;;;;;;4904061;29;20036;-86
2023/05/15 07:48:24;;;;;;;7.90;6.38;;;16.90;77.20;;;;;;4904265;29;20024;-86
2023/05/15 07:50:51;;;;;;;8.00;6.57;;;16.90;77.10;;;;;;4902972;29;20119;-86
2023/05/15 07:53:16;;;;;;;8.27;6.55;;;16.90;77.10;;;;;;4902186;29;20032;-85
2023/05/15 07:55:43;;;;;;;7.85;6.55;;;17.00;77.10;;;;;;4902065;29;20031;-85
2023/05/15 07:58:08;;;;;;;7.50;6.22;;;17.00;76.90;;;;;;4902186;29;20052;-85
2023/05/15 08:00:35;;;;;;;8.52;6.32;;;17.10;76.80;;;;;;4902478;29;20066;-85
2023/05/15 08:03:00;;;;;;;7.72;6.38;;;17.10;76.70;;;;;;4918815;29;20323;-85
2023/05/15 08:05:25;;;;;;;8.23;6.45;;;17.10;76.70;;;;;;4901785;29;20047;-85
2023/05/15 08:07:51;;;;;;;8.25;7.00;;;17.20;76.60;;;;;;4902009;29;20461;-86
2023/05/15 08:10:17;;;;;;;9.18;6.65;;;17.20;76.50;;;;;;4919019;29;20025;-86
2023/05/15 08:12:45;;;;;;;8.75;6.85;;;17.20;76.50;;;;;;4901975;29;20024;-86
2023/05/15 08:15:11;;;;;;;7.75;6.40;;;17.20;76.40;;;;;;4901482;29;20027;-86
2023/05/15 08:17:37;;;;;;;8.60;7.13;;;17.20;76.30;;;;;;4918847;29;20024;-86
2023/05/15 08:20:03;;;;;;;8.98;7.28;;;17.20;76.30;;;;;;4902821;29;20084;-86
2023/05/15 08:22:29;;;;;;;8.35;6.60;;;17.20;76.50;;;;;;4919096;29;20454;-86
2023/05/15 08:24:54;;;;;;;7.75;6.60;;;17.20;76.70;;;;;;4901164;29;20071;-86
2023/05/15 08:27:20;;;;;;;8.07;6.93;;;17.20;76.80;;;;;;4902208;29;20034;-86
2023/05/15 08:29:46;;;;;;;7.80;6.43;;;17.20;76.90;;;;;;4901924;29;20057;-86
2023/05/15 08:32:11;;;;;;;8.27;6.80;;;17.20;76.90;;;;;;4902093;29;20417;-85
2023/05/15 08:34:37;;;;;;;8.90;7.20;;;17.20;77.00;;;;;;4901907;29;20556;-86
2023/05/15 08:37:05;;;;;;;9.07;6.95;;;17.20;77.00;;;;;;4919307;29;20052;-86
2023/05/15 08:39:30;;;;;;;8.98;6.82;;;17.20;77.00;;;;;;4918818;29;20020;-85
2023/05/15 08:42:09;;;;;;;7.93;6.32;;;17.20;77.10;;;;;;4901855;29;20035;-86
2023/05/15 08:44:35;;;;;;;8.50;6.82;;;17.20;77.00;;;;;;4918021;29;20024;-86
2023/05/15 08:47:02;;;;;;;8.27;6.60;;;17.20;77.00;;;;;;4901453;29;20386;-86
2023/05/15 08:50:07;;;;;;;8.77;7.00;;;17.20;76.90;;;;;;4901485;29;20060;-86
2023/05/15 08:52:34;;;;;;;9.43;7.18;;;17.30;77.00;;;;;;4807767;29;20619;-86
2023/05/15 08:55:00;;;;;;;8.63;6.78;;;17.30;76.90;;;;;;4883974;29;20466;-86
2023/05/15 08:57:27;;;;;;;8.32;7.05;;;17.30;76.90;;;;;;4901339;29;20028;-87
2023/05/15 08:59:53;;;;;;;8.30;7.00;;;17.40;76.90;;;;;;4918081;29;20028;-86
2023/05/15 09:02:19;;;;;;;7.93;6.47;;;17.40;76.80;;;;;;4904041;29;20119;-88
2023/05/15 09:04:45;;;;;;;8.30;6.82;;;17.40;76.90;;;;;;4908581;29;20024;-87
2023/05/15 09:07:11;;;;;;;8.18;6.90;;;17.40;77.00;;;;;;4925501;29;20160;-87
2023/05/15 09:09:37;;;;;;;8.88;6.75;;;17.40;77.00;;;;;;4908158;29;20481;-87
2023/05/15 09:12:03;;;;;;;9.50;7.03;;;17.30;77.00;;;;;;4924851;29;20032;-87
2023/05/15 09:14:29;;;;;;;8.48;7.35;;;17.30;77.10;;;;;;4907129;29;20024;-87
2023/05/15 09:16:55;;;;;;;8.30;6.95;;;17.40;77.10;;;;;;4906958;29;20028;-86
2023/05/15 09:19:21;;;;;;;8.82;7.25;;;17.30;77.10;;;;;;4907008;29;20028;-86
2023/05/15 09:21:47;;;;;;;8.10;6.72;;;17.30;77.20;;;;;;4906235;29;20036;-87
2023/05/15 09:24:23;;;;;;;9.13;7.18;;;17.30;77.20;;;;;;4919587;29;20044;-86
2023/05/15 09:27:03;;;;;;;8.48;6.90;;;17.30;77.10;;;;;;4901559;29;20046;-86
2023/05/15 09:29:30;;;;;;;8.32;7.10;;;17.40;77.10;;;;;;4916199;29;20048;-86
2023/05/15 09:31:55;;;;;;;8.32;6.82;;;17.40;77.10;;;;;;4905918;29;20127;-87
2023/05/15 09:34:32;;;;;;;8.23;6.75;;;17.40;77.10;;;;;;4904641;29;20063;-86
2023/05/15 09:37:01;;;;;;;8.93;7.28;;;17.50;77.00;;;;;;4904993;29;20060;-86
2023/05/15 09:39:26;;;;;;;8.65;7.13;;;17.50;76.90;;;;;;4905387;29;20454;-87
2023/05/15 09:41:53;;;;;;;9.38;7.60;;;17.50;76.80;;;;;;4901559;29;20059;-86
2023/05/15 09:44:26;;;;;;;8.93;7.57;;;17.50;76.80;;;;;;4901621;29;20062;-86
2023/05/15 09:46:51;;;;;;;8.45;7.03;;;17.60;76.70;;;;;;4903923;29;20393;-85
2023/05/15 09:49:18;;;;;;;8.30;7.05;;;17.50;76.60;;;;;;4904250;29;20035;-86
2023/05/15 09:51:44;;;;;;;9.35;6.93;;;17.60;76.60;;;;;;4903659;29;20032;-87
2023/05/15 09:54:15;;;;;;;8.88;7.95;;;17.70;76.60;;;;;;4907231;29;20069;-88
2023/05/15 09:56:43;;;;;;;8.90;7.07;;;17.70;76.60;;;;;;4907687;29;20056;-87
2023/05/15 09:59:13;;;;;;;9.07;7.70;;;17.70;76.50;;;;;;4906574;29;20269;-87
2023/05/15 10:01:42;;;;;;;9.63;7.03;;;17.70;76.50;;;;;;4906260;29;20067;-88
2023/05/15 10:04:08;;;;;;;9.02;7.80;;;17.70;76.50;;;;;;4906068;29;20028;-86
2023/05/15 10:06:36;;;;;;;9.23;7.53;;;17.70;76.30;;;;;;4906079;29;20035;-86
2023/05/15 10:09:02;;;;;;;8.88;7.03;;;17.70;76.60;;;;;;4921558;29;20036;-87
2023/05/15 10:11:32;;;;;;;8.20;6.88;;;17.70;76.70;;;;;;4905610;29;20123;-86
2023/05/15 10:13:58;;;;;;;8.68;7.45;;;17.70;76.70;;;;;;4905352;29;20477;-86
2023/05/15 10:16:24;;;;;;;10.55;7.53;;;17.70;76.90;;;;;;4922131;29;20039;-87
2023/05/15 10:18:51;;;;;;;9.00;7.32;;;17.70;76.90;;;;;;4903317;29;20115;-86
2023/05/15 10:21:19;;;;;;;9.15;7.63;;;17.70;76.90;;;;;;4899538;29;20127;-86
2023/05/15 10:23:46;;;;;;;8.15;7.00;;;17.70;76.90;;;;;;4903788;29;20046;-86
2023/05/15 10:26:20;;;;;;;8.90;7.43;;;17.70;76.90;;;;;;4904390;29;20521;-87
2023/05/15 10:28:47;;;;;;;9.13;7.18;;;17.70;77.00;;;;;;4903662;29;20481;-86
2023/05/15 10:31:13;;;;;;;9.05;7.15;;;17.70;77.00;;;;;;4916150;29;20024;-86
2023/05/15 10:33:39;;;;;;;8.10;7.10;;;17.70;77.00;;;;;;4916993;29;20375;-85
2023/05/15 10:36:06;;;;;;;8.43;7.47;;;17.70;77.00;;;;;;4918249;29;20509;-86
2023/05/15 10:38:32;;;;;;;8.82;7.68;;;17.70;77.00;;;;;;4903536;29;20552;-86
2023/05/15 10:40:59;;;;;;;8.65;7.30;;;17.70;77.00;;;;;;4902990;29;20040;-86
2023/05/15 10:43:27;;;;;;;9.30;7.30;;;17.70;77.00;;;;;;4917854;29;20533;-85
2023/05/15 10:45:53;;;;;;;8.98;7.05;;;17.70;77.10;;;;;;4899652;29;20066;-85
2023/05/15 10:48:19;;;;;;;8.38;7.32;;;17.70;77.10;;;;;;4902375;29;20036;-85
2023/05/15 10:50:47;;;;;;;8.70;7.40;;;17.70;77.10;;;;;;4902543;29;20114;-87
2023/05/15 10:53:13;;;;;;;9.10;7.90;;;17.70;77.10;;;;;;4902022;29;20481;-86
2023/05/15 10:55:38;;;;;;;8.48;7.38;;;17.70;77.20;;;;;;4901604;29;20062;-87
2023/05/15 10:58:08;;;;;;;8.35;7.22;;;17.70;77.20;;;;;;4918016;29;20043;-86
2023/05/15 11:00:40;;;;;;;9.40;7.68;;;17.70;77.20;;;;;;4899217;29;20028;-85
2023/05/15 11:03:06;;;;;;;9.13;7.57;;;17.70;77.30;;;;;;4899094;29;20122;-86
2023/05/15 11:06:11;;;;;;;9.20;7.68;;;17.70;77.20;;;;;;4898807;29;20107;-86
2023/05/15 11:08:38;;;;;;;10.43;7.90;;;17.70;77.30;;;;;;4899312;29;20026;-86
2023/05/15 11:11:03;;;;;;;9.40;8.00;;;17.70;77.30;;;;;;4900054;29;20038;-86
2023/05/15 11:14:05;;;;;;;9.95;7.70;;;17.70;77.30;;;;;;4900654;29;20119;-86
2023/05/15 11:16:52;;;;;;;9.50;7.60;;;17.70;77.40;;;;;;4900414;29;20028;-86
2023/05/15 11:19:32;;;;;;;9.32;7.75;;;17.70;77.40;;;;;;4907174;29;20032;-86
2023/05/15 11:21:58;;;;;;;9.30;8.13;;;17.70;77.40;;;;;;4907003;29;20039;-86
2023/05/15 11:24:45;;;;;;;10.48;7.82;;;17.80;77.30;;;;;;4923549;29;20047;-86
2023/05/15 11:27:12;;;;;;;9.63;8.02;;;17.80;77.30;;;;;;4923630;29;20082;-85
2023/05/15 11:30:13;;;;;;;9.95;8.85;;;17.80;77.30;;;;;;4905079;29;20068;-87
2023/05/15 11:32:50;;;;;;;10.07;8.40;;;17.90;77.20;;;;;;4904827;29;20039;-86
2023/05/15 11:35:20;;;;;;;9.63;8.30;;;17.80;77.00;;;;;;4941736;23;20516;-84
2023/05/15 11:37:48;;;;;;;10.27;8.43;;;17.90;77.10;;;;;;4942700;29;20027;-83
2023/05/15 11:40:19;;;;;;;9.35;8.07;;;17.90;77.10;;;;;;4942937;29;20035;-83
2023/05/15 11:43:19;;;;;;;9.90;8.27;;;17.90;77.10;;;;;;4960396;29;20027;-83
2023/05/15 11:45:49;;;;;;;9.55;8.07;;;17.90;77.10;;;;;;4935312;28;20067;-83
2023/05/15 11:48:16;;;;;;;10.70;8.45;;;17.90;77.20;;;;;;4979235;28;20555;-85
2023/05/15 11:50:43;;;;;;;9.93;8.60;;;17.90;77.10;;;;;;4961992;28;20072;-83
2023/05/15 11:53:09;;;;;;;10.02;8.25;;;17.80;77.10;;;;;;4961890;28;20088;-83
2023/05/15 11:55:36;;;;;;;9.55;8.07;;;17.80;77.30;;;;;;4961693;28;20514;-82
2023/05/15 11:58:03;;;;;;;9.20;7.63;;;17.80;77.50;;;;;;4961884;28;20500;-85
2023/05/15 12:00:29;;;;;;;10.05;8.75;;;17.70;77.60;;;;;;4961674;28;20106;-83
2023/05/15 12:02:54;;;;;;;10.05;8.43;;;17.70;77.70;;;;;;4961874;28;20063;-83
2023/05/15 12:05:20;;;;;;;10.63;8.48;;;17.70;77.80;;;;;;4961764;28;20023;-82
2023/05/15 12:07:46;;;;;;;10.10;8.05;;;17.70;77.80;;;;;;4961641;28;20113;-84
2023/05/15 12:10:12;;;;;;;9.40;8.23;;;17.70;77.80;;;;;;4961759;28;20030;-83
2023/05/15 12:12:39;;;;;;;9.27;7.90;;;17.70;77.90;;;;;;4978941;28;20381;-84
2023/05/15 12:15:08;;;;;;;10.18;8.68;;;17.70;77.90;;;;;;4961835;28;20070;-85
2023/05/15 12:17:39;;;;;;;10.48;8.80;;;17.70;77.90;;;;;;4961690;28;20029;-83
2023/05/15 12:20:10;;;;;;;9.75;8.13;;;17.70;78.10;;;;;;4979102;28;20436;-83
2023/05/15 12:22:37;;;;;;;9.60;8.27;;;17.70;78.10;;;;;;4961504;28;20435;-84
2023/05/15 12:25:03;;;;;;;10.10;8.02;;;17.70;78.10;;;;;;4961342;28;20118;-84
2023/05/15 12:27:29;;;;;;;9.73;7.90;;;17.70;78.20;;;;;;4960908;28;20035;-82
2023/05/15 12:29:55;;;;;;;9.65;7.85;;;17.70;78.10;;;;;;4957795;28;20078;-85
2023/05/15 12:32:20;;;;;;;9.70;8.43;;;17.70;78.20;;;;;;4975856;28;20467;-83
2023/05/15 12:34:46;;;;;;;9.73;8.15;;;17.60;78.20;;;;;;4975361;28;20078;-84
2023/05/15 12:37:12;;;;;;;9.63;8.13;;;17.60;78.20;;;;;;4958670;28;20023;-82
2023/05/15 12:39:52;;;;;;;9.73;8.20;;;17.70;78.80;;;;;;4958446;28;20034;-83
2023/05/15 12:42:18;;;;;;;9.52;7.95;;;17.60;78.30;;;;;;4958462;28;20071;-83
2023/05/15 12:44:43;;;;;;;10.07;7.97;;;17.60;78.30;;;;;;4958011;28;20023;-84
2023/05/15 12:47:12;;;;;;;9.88;8.15;;;17.60;78.40;;;;;;4958336;28;20026;-83
2023/05/15 12:49:39;;;;;;;9.98;8.32;;;17.60;78.40;;;;;;4957966;28;20132;-84
2023/05/15 12:52:09;;;;;;;9.85;8.43;;;17.60;78.40;;;;;;4975454;28;20554;-83
2023/05/15 12:54:42;;;;;;;9.07;7.65;;;17.60;78.40;;;;;;4957945;28;20384;-83
2023/05/15 12:57:08;;;;;;;9.95;7.97;;;17.60;78.40;;;;;;4958225;28;20475;-84
2023/05/15 12:59:34;;;;;;;10.05;8.10;;;17.60;78.40;;;;;;4957917;28;20122;-84
2023/05/15 13:02:00;;;;;;;10.30;8.35;;;17.60;78.50;;;;;;4958230;28;20050;-84
2023/05/15 13:04:25;;;;;;;10.48;8.45;;;17.60;78.50;;;;;;4957828;28;20037;-83
2023/05/15 13:06:51;;;;;;;10.07;8.35;;;17.60;78.50;;;;;;4958058;28;20030;-84
2023/05/15 13:09:21;;;;;;;9.70;8.23;;;17.60;78.40;;;;;;4957847;28;20027;-85
2023/05/15 13:11:47;;;;;;;10.65;8.30;;;17.60;78.30;;;;;;4975043;28;20062;-83
2023/05/15 13:14:16;;;;;;;10.27;8.07;;;17.60;78.40;;;;;;4974921;28;20109;-84
2023/05/15 13:16:45;;;;;;;9.38;8.25;;;17.60;78.30;;;;;;4975115;28;20027;-82
2023/05/15 13:19:10;;;;;;;10.30;8.18;;;17.70;78.30;;;;;;4957846;28;20023;-83
2023/05/15 13:21:36;;;;;;;12.20;8.48;;;17.70;78.30;;;;;;4974971;28;20043;-83
2023/05/15 13:24:02;;;;;;;9.65;7.65;;;17.70;78.20;;;;;;4957542;28;20105;-83
2023/05/15 13:26:28;;;;;;;10.05;8.23;;;17.70;78.30;;;;;;4957427;28;20043;-84
2023/05/15 13:28:53;;;;;;;9.77;8.00;;;17.70;78.30;;;;;;4974990;28;20087;-83
2023/05/15 13:31:19;;;;;;;9.75;8.30;;;17.70;78.30;;;;;;4957615;28;20038;-84
2023/05/15 13:33:44;;;;;;;10.88;8.45;;;17.60;78.20;;;;;;4974574;28;20086;-85
2023/05/15 13:36:10;;;;;;;10.02;8.50;;;17.60;78.20;;;;;;4957442;28;20035;-85
2023/05/15 13:38:36;;;;;;;9.57;7.68;;;17.60;78.30;;;;;;4957292;28;20030;-84